Time;durP1;ratioP1;P1;durP2;ratioP2;P2;SDS_P1;SDS_P2;PMS_P1;PMS_P2;Temp;Humidity;BMP_temperature;BMP_pressure;BME280_temperature;BME280_humidity;BME280_pressure;Samples;Min_cycle;Max_cycle;Signal;HPM_P1;HPM_P2
2022/07/22 00:01:23;;;;;;;65.50;49.10;;;28.20;50.00;;;;;;6185779;23;19997;-66
2022/07/22 00:03:49;;;;;;;61.97;48.38;;;28.20;49.70;;;;;;6185528;23;20633;-66
2022/07/22 00:06:15;;;;;;;59.70;48.88;;;28.10;49.80;;;;;;6185625;23;20009;-66
2022/07/22 00:08:40;;;;;;;67.05;48.03;;;28.10;49.40;;;;;;6185523;23;20009;-66
2022/07/22 00:11:06;;;;;;;58.95;47.15;;;28.10;49.60;;;;;;6159507;23;20457;-66
2022/07/22 00:13:32;;;;;;;59.33;47.22;;;28.00;49.60;;;;;;6185101;23;20443;-66
2022/07/22 00:15:58;;;;;;;56.80;47.40;;;28.00;49.80;;;;;;6185689;23;20112;-66
2022/07/22 00:18:23;;;;;;;58.85;44.17;;;27.90;49.30;;;;;;6185730;23;19998;-66
2022/07/22 00:20:49;;;;;;;53.25;45.20;;;27.90;49.40;;;;;;6185533;23;20028;-66
2022/07/22 00:23:15;;;;;;;56.05;44.72;;;27.90;50.00;;;;;;6185400;23;20324;-66
2022/07/22 00:25:41;;;;;;;58.28;45.33;;;27.80;50.00;;;;;;6185238;23;20015;-66
2022/07/22 00:28:06;;;;;;;57.25;43.28;;;27.80;50.00;;;;;;6185178;23;20017;-66
2022/07/22 00:30:32;;;;;;;54.72;43.03;;;27.80;49.90;;;;;;6185456;23;20037;-66
2022/07/22 00:32:58;;;;;;;59.20;43.35;;;27.70;50.20;;;;;;6185199;23;20036;-66
2022/07/22 00:35:24;;;;;;;49.60;42.58;;;27.80;50.00;;;;;;6184849;23;20437;-66
2022/07/22 00:37:50;;;;;;;57.40;42.22;;;27.70;50.20;;;;;;6185193;23;20001;-66
2022/07/22 00:40:16;;;;;;;58.08;44.53;;;27.70;50.30;;;;;;6185300;23;20065;-66
2022/07/22 00:42:41;;;;;;;56.67;44.17;;;27.60;50.20;;;;;;6185064;23;20005;-66
2022/07/22 00:45:08;;;;;;;55.50;43.90;;;27.60;50.30;;;;;;6185430;23;20009;-66
2022/07/22 00:47:34;;;;;;;51.78;43.30;;;27.50;50.40;;;;;;6185161;23;20341;-67
2022/07/22 00:49:59;;;;;;;55.83;42.58;;;27.50;50.60;;;;;;6185035;23;20289;-66
2022/07/22 00:52:26;;;;;;;58.03;43.03;;;27.40;51.00;;;;;;6184880;23;20039;-66
2022/07/22 00:54:52;;;;;;;61.03;43.78;;;27.40;50.80;;;;;;6185238;23;20337;-66
2022/07/22 00:57:18;;;;;;;57.95;43.38;;;27.40;51.00;;;;;;6185133;23;20047;-66
2022/07/22 00:59:44;;;;;;;65.45;43.85;;;27.30;50.70;;;;;;6180815;23;20375;-66
2022/07/22 01:02:10;;;;;;;53.90;43.83;;;27.30;50.80;;;;;;6182003;23;20012;-66
2022/07/22 01:04:36;;;;;;;59.45;45.72;;;27.20;51.40;;;;;;6182898;23;20442;-66
2022/07/22 01:07:03;;;;;;;59.05;44.75;;;27.20;51.60;;;;;;6184665;23;19997;-66
2022/07/22 01:09:29;;;;;;;55.45;43.55;;;27.20;51.90;;;;;;6186058;23;20013;-66
2022/07/22 01:11:54;;;;;;;66.53;43.90;;;27.20;52.30;;;;;;6184819;23;20020;-66
2022/07/22 01:14:20;;;;;;;57.40;47.00;;;27.20;52.20;;;;;;6184525;23;20004;-66
2022/07/22 01:16:46;;;;;;;59.28;45.42;;;27.20;51.90;;;;;;6185006;23;20551;-66
2022/07/22 01:19:11;;;;;;;58.10;45.88;;;27.20;52.20;;;;;;6184888;23;20009;-66
2022/07/22 01:21:37;;;;;;;59.88;45.45;;;27.20;52.20;;;;;;6184304;23;20001;-66
2022/07/22 01:24:04;;;;;;;54.33;45.10;;;27.20;52.10;;;;;;6185055;23;20052;-66
2022/07/22 01:26:33;;;;;;;58.90;45.35;;;27.20;52.40;;;;;;6186701;23;20027;-66
2022/07/22 01:28:59;;;;;;;62.40;45.58;;;27.20;52.60;;;;;;6186571;23;20036;-67
2022/07/22 01:31:25;;;;;;;57.10;43.70;;;27.20;52.40;;;;;;6186729;23;20012;-66
2022/07/22 01:33:50;;;;;;;60.10;43.55;;;27.20;52.10;;;;;;6186865;23;20005;-66
2022/07/22 01:36:16;;;;;;;51.25;41.63;;;27.20;51.90;;;;;;6186235;23;20004;-66
2022/07/22 01:38:42;;;;;;;53.83;40.28;;;27.20;52.00;;;;;;6186754;23;20001;-65
2022/07/22 01:41:08;;;;;;;53.42;41.70;;;27.20;51.70;;;;;;6187191;23;20090;-66
2022/07/22 01:43:34;;;;;;;49.53;41.75;;;27.20;51.50;;;;;;6186807;23;20004;-66
2022/07/22 01:46:00;;;;;;;53.85;40.38;;;27.20;51.40;;;;;;6187067;23;20005;-66
2022/07/22 01:48:26;;;;;;;51.38;40.22;;;27.10;51.40;;;;;;6186453;23;20047;-66
2022/07/22 01:50:52;;;;;;;52.47;39.63;;;27.10;51.20;;;;;;6186848;23;20009;-66
2022/07/22 01:53:18;;;;;;;53.67;38.40;;;27.10;51.70;;;;;;6187016;23;20013;-65
2022/07/22 01:55:44;;;;;;;49.85;39.10;;;27.00;51.60;;;;;;6186668;23;20344;-67
2022/07/22 01:58:09;;;;;;;47.92;39.55;;;27.00;51.90;;;;;;6186773;23;20017;-65
2022/07/22 02:00:36;;;;;;;50.30;40.78;;;27.00;51.90;;;;;;6186791;23;20001;-66
2022/07/22 02:03:02;;;;;;;52.00;40.33;;;26.90;51.70;;;;;;6186717;23;20020;-65
2022/07/22 02:05:28;;;;;;;52.50;39.67;;;26.90;51.90;;;;;;6186904;23;20001;-66
2022/07/22 02:08:03;;;;;;;51.70;41.92;;;26.90;52.40;;;;;;6186915;23;20332;-66
2022/07/22 02:10:29;;;;;;;56.13;40.35;;;26.90;52.50;;;;;;6186962;23;20009;-66
2022/07/22 02:12:56;;;;;;;55.67;41.90;;;26.90;52.60;;;;;;6186512;23;20321;-66
2022/07/22 02:15:21;;;;;;;53.33;39.58;;;26.90;52.60;;;;;;6186575;23;20003;-66
2022/07/22 02:17:47;;;;;;;52.53;40.70;;;26.90;52.80;;;;;;6186349;23;20068;-66
2022/07/22 02:20:13;;;;;;;49.92;40.33;;;26.90;52.80;;;;;;6186464;23;20083;-66
2022/07/22 02:22:39;;;;;;;49.10;39.38;;;26.90;52.70;;;;;;6186761;23;20004;-66
2022/07/22 02:25:05;;;;;;;51.85;41.58;;;26.90;52.60;;;;;;6186374;23;20001;-66
2022/07/22 02:27:30;;;;;;;52.13;40.38;;;26.90;53.00;;;;;;6186462;23;20420;-66
2022/07/22 02:29:56;;;;;;;53.30;40.30;;;26.90;53.00;;;;;;6186652;23;20001;-66
2022/07/22 02:32:22;;;;;;;55.15;39.65;;;26.90;52.90;;;;;;6186234;23;20020;-67
2022/07/22 02:34:47;;;;;;;48.42;39.15;;;26.80;53.30;;;;;;6186345;23;20002;-66
2022/07/22 02:37:13;;;;;;;46.30;38.78;;;26.70;53.10;;;;;;6185967;23;20463;-66
2022/07/22 02:39:39;;;;;;;49.17;38.40;;;26.70;52.80;;;;;;6186106;23;20001;-66
2022/07/22 02:42:04;;;;;;;47.60;36.47;;;26.70;53.50;;;;;;6186516;23;20029;-66
2022/07/22 02:44:30;;;;;;;45.47;36.08;;;26.70;53.10;;;;;;6186154;23;19997;-66
2022/07/22 02:46:56;;;;;;;43.10;34.97;;;26.60;52.80;;;;;;6186044;23;20044;-66
2022/07/22 02:49:21;;;;;;;44.22;33.65;;;26.60;52.50;;;;;;6186680;23;20112;-66
2022/07/22 02:51:47;;;;;;;44.88;32.72;;;26.60;52.90;;;;;;6185789;23;20344;-66
2022/07/22 02:54:13;;;;;;;47.78;35.65;;;26.50;53.00;;;;;;6186147;23;20013;-66
2022/07/22 02:56:38;;;;;;;43.42;32.10;;;26.50;53.30;;;;;;6185478;23;20445;-66
2022/07/22 02:59:04;;;;;;;43.47;34.78;;;26.50;53.20;;;;;;6185941;23;20001;-65
2022/07/22 03:01:30;;;;;;;47.90;33.65;;;26.50;53.20;;;;;;6186450;23;20009;-66
2022/07/22 03:03:56;;;;;;;44.75;33.75;;;26.50;53.20;;;;;;6186129;23;20511;-66
2022/07/22 03:06:21;;;;;;;42.65;33.08;;;26.40;53.30;;;;;;6186315;23;20013;-67
2022/07/22 03:08:48;;;;;;;42.28;33.30;;;26.40;53.80;;;;;;6185791;23;20357;-66
2022/07/22 03:11:13;;;;;;;44.17;32.88;;;26.30;53.20;;;;;;6186317;23;20001;-66
2022/07/22 03:13:39;;;;;;;46.95;32.03;;;26.30;53.00;;;;;;6185987;23;20013;-65
2022/07/22 03:16:05;;;;;;;37.95;32.67;;;26.30;53.20;;;;;;6186108;23;19997;-66
2022/07/22 03:18:30;;;;;;;38.70;32.28;;;26.20;53.40;;;;;;6186417;23;20320;-66
2022/07/22 03:20:56;;;;;;;40.22;30.52;;;26.20;53.70;;;;;;6185608;23;19997;-66
2022/07/22 03:23:22;;;;;;;44.40;33.88;;;26.20;54.10;;;;;;6186358;23;20013;-66
2022/07/22 03:25:48;;;;;;;44.08;31.77;;;26.20;54.60;;;;;;6186503;23;21085;-66
2022/07/22 03:28:14;;;;;;;41.15;32.65;;;26.20;54.50;;;;;;6185994;23;20076;-65
2022/07/22 03:30:39;;;;;;;41.22;32.35;;;26.10;54.80;;;;;;6186017;23;20051;-66
2022/07/22 03:33:05;;;;;;;42.65;31.42;;;26.10;54.80;;;;;;6186063;23;20017;-66
2022/07/22 03:35:31;;;;;;;38.90;31.83;;;26.10;54.60;;;;;;6186242;23;20076;-66
2022/07/22 03:37:57;;;;;;;39.42;32.33;;;26.10;54.20;;;;;;6185744;23;20428;-66
2022/07/22 03:40:23;;;;;;;44.10;32.67;;;26.10;54.10;;;;;;6185742;23;20005;-66
2022/07/22 03:42:48;;;;;;;48.05;32.47;;;26.00;54.40;;;;;;6185583;23;20431;-65
2022/07/22 03:45:14;;;;;;;46.42;32.40;;;26.00;54.20;;;;;;6186144;23;20076;-66
2022/07/22 03:47:40;;;;;;;45.92;34.38;;;26.00;54.10;;;;;;6185481;23;20482;-66
2022/07/22 03:50:06;;;;;;;45.40;34.13;;;26.00;54.10;;;;;;6186139;23;20009;-66
2022/07/22 03:52:32;;;;;;;44.13;34.40;;;26.00;54.90;;;;;;6185571;23;20016;-65
2022/07/22 03:54:58;;;;;;;43.25;33.38;;;25.90;55.00;;;;;;6185854;23;20005;-66
2022/07/22 03:57:24;;;;;;;44.10;33.30;;;25.80;54.90;;;;;;6185606;23;20356;-66
2022/07/22 03:59:49;;;;;;;41.33;33.08;;;25.80;55.00;;;;;;6185998;23;20475;-66
2022/07/22 04:02:15;;;;;;;44.67;32.78;;;25.80;55.30;;;;;;6185712;23;20040;-66
2022/07/22 04:04:41;;;;;;;40.70;32.38;;;25.80;55.10;;;;;;6185790;23;20039;-67
2022/07/22 04:07:06;;;;;;;36.30;31.95;;;25.80;55.20;;;;;;6185809;23;20009;-65
2022/07/22 04:09:32;;;;;;;42.72;32.28;;;25.80;55.60;;;;;;6185674;23;20004;-66
2022/07/22 04:11:58;;;;;;;40.35;30.92;;;25.80;55.80;;;;;;6185387;23;20076;-66
2022/07/22 04:14:24;;;;;;;47.05;31.27;;;25.70;55.70;;;;;;6185671;23;20013;-66
2022/07/22 04:16:49;;;;;;;38.67;31.45;;;25.70;55.90;;;;;;6185784;23;20052;-66
2022/07/22 04:19:15;;;;;;;44.55;31.35;;;25.70;55.90;;;;;;6185099;23;20092;-66
2022/07/22 04:21:41;;;;;;;46.75;32.42;;;25.70;56.10;;;;;;6185228;23;20016;-66
2022/07/22 04:24:08;;;;;;;40.58;30.27;;;25.70;55.80;;;;;;6185523;23;19997;-66
2022/07/22 04:26:34;;;;;;;44.08;29.63;;;25.70;55.80;;;;;;6185871;23;20009;-66
2022/07/22 04:28:59;;;;;;;42.35;30.65;;;25.70;55.70;;;;;;6185596;23;20009;-66
2022/07/22 04:31:25;;;;;;;44.95;32.75;;;25.70;56.10;;;;;;6185148;23;20040;-66
2022/07/22 04:33:51;;;;;;;52.25;31.05;;;25.70;56.00;;;;;;6185361;23;20039;-66
2022/07/22 04:36:17;;;;;;;45.65;32.00;;;25.70;56.00;;;;;;6185408;23;19997;-66
2022/07/22 04:38:43;;;;;;;45.25;31.02;;;25.70;56.20;;;;;;6184482;23;20013;-66
2022/07/22 04:41:08;;;;;;;41.83;32.92;;;25.70;56.00;;;;;;6184912;23;20124;-66
2022/07/22 04:43:34;;;;;;;35.97;30.23;;;25.70;56.30;;;;;;6185283;23;20008;-66
2022/07/22 04:46:00;;;;;;;46.92;31.63;;;25.70;55.90;;;;;;6185427;23;20016;-66
2022/07/22 04:48:25;;;;;;;43.40;32.33;;;25.70;55.90;;;;;;6185392;23;20001;-66
2022/07/22 04:50:51;;;;;;;51.28;31.65;;;25.70;55.80;;;;;;6184627;23;19997;-66
2022/07/22 04:53:17;;;;;;;55.30;31.15;;;25.80;56.30;;;;;;6184244;23;20005;-66
2022/07/22 04:55:43;;;;;;;51.17;32.15;;;25.70;56.30;;;;;;6185009;23;20001;-65
2022/07/22 04:58:08;;;;;;;38.08;31.80;;;25.80;56.20;;;;;;6183465;23;20024;-66
2022/07/22 05:00:34;;;;;;;40.75;31.25;;;25.70;55.90;;;;;;6184144;23;19997;-66
2022/07/22 05:03:00;;;;;;;42.92;30.98;;;25.80;56.00;;;;;;6185426;23;20012;-65
2022/07/22 05:05:26;;;;;;;45.50;29.83;;;25.80;56.20;;;;;;6184654;23;20059;-65
2022/07/22 05:07:52;;;;;;;52.38;29.83;;;25.80;56.30;;;;;;6184686;23;20073;-67
2022/07/22 05:10:17;;;;;;;47.20;30.40;;;25.90;56.30;;;;;;6185091;23;20015;-66
2022/07/22 05:12:43;;;;;;;44.15;27.40;;;25.90;56.30;;;;;;6185410;23;20013;-66
2022/07/22 05:15:09;;;;;;;40.58;29.45;;;26.00;56.20;;;;;;6185059;23;20055;-66
2022/07/22 05:17:35;;;;;;;39.38;29.08;;;26.00;55.70;;;;;;6185029;23;20336;-66
2022/07/22 05:20:04;;;;;;;43.72;27.77;;;26.00;55.60;;;;;;6185702;23;20008;-67
2022/07/22 05:22:30;;;;;;;37.85;28.13;;;26.00;55.40;;;;;;6185718;23;20075;-67
2022/07/22 05:24:56;;;;;;;43.45;28.00;;;26.10;55.50;;;;;;6184728;23;20451;-66
2022/07/22 05:27:22;;;;;;;47.50;28.42;;;26.10;55.70;;;;;;6184995;23;20012;-67
2022/07/22 05:29:48;;;;;;;40.50;28.10;;;26.20;55.60;;;;;;6184530;23;20037;-67
2022/07/22 05:32:14;;;;;;;44.95;28.88;;;26.20;55.30;;;;;;6184404;23;20409;-67
2022/07/22 05:34:40;;;;;;;45.05;27.00;;;26.20;55.30;;;;;;6184729;23;20081;-67
2022/07/22 05:37:05;;;;;;;54.90;27.05;;;26.30;55.20;;;;;;6185053;23;20037;-67
2022/07/22 05:39:31;;;;;;;53.97;27.70;;;26.30;55.10;;;;;;6184862;23;20068;-67
2022/07/22 05:41:57;;;;;;;60.63;28.02;;;26.40;55.10;;;;;;6184790;23;20012;-67
2022/07/22 05:44:22;;;;;;;51.33;28.27;;;26.40;55.00;;;;;;6184878;23;20330;-66
2022/07/22 05:46:48;;;;;;;44.47;26.98;;;26.40;55.00;;;;;;6184420;23;20008;-67
2022/07/22 05:49:14;;;;;;;55.03;27.90;;;26.50;54.90;;;;;;6183688;23;20016;-68
2022/07/22 05:51:39;;;;;;;51.42;27.48;;;26.50;54.70;;;;;;6184227;23;20039;-67
2022/07/22 05:54:05;;;;;;;42.63;26.58;;;26.60;54.70;;;;;;6184794;23;20080;-66
2022/07/22 05:56:31;;;;;;;44.83;27.17;;;26.70;54.70;;;;;;6182538;23;20024;-66
2022/07/22 05:58:57;;;;;;;35.78;24.23;;;26.70;54.50;;;;;;6184050;23;20013;-66
2022/07/22 06:01:22;;;;;;;34.17;24.58;;;26.80;54.60;;;;;;6184314;23;19997;-68
2022/07/22 06:03:48;;;;;;;35.08;22.90;;;26.80;54.40;;;;;;6184381;23;20506;-67
2022/07/22 06:06:14;;;;;;;40.13;22.35;;;26.90;54.20;;;;;;6183746;23;20084;-66
2022/07/22 06:08:40;;;;;;;34.28;19.92;;;26.90;53.90;;;;;;6184611;23;20024;-65
2022/07/22 06:11:06;;;;;;;31.60;19.10;;;27.00;53.80;;;;;;6185447;23;20028;-65
2022/07/22 06:13:32;;;;;;;23.25;14.93;;;27.10;53.50;;;;;;6185716;23;20115;-69
2022/07/22 06:15:58;;;;;;;14.00;9.55;;;27.20;53.10;;;;;;6185435;23;20001;-69
2022/07/22 06:18:24;;;;;;;14.48;8.32;;;27.20;51.90;;;;;;6185197;23;20016;-68
2022/07/22 06:20:50;;;;;;;13.32;9.10;;;27.30;50.80;;;;;;6185724;23;19997;-70
2022/07/22 06:23:15;;;;;;;13.60;9.18;;;27.40;50.40;;;;;;6186345;23;20036;-70
2022/07/22 06:25:42;;;;;;;13.80;8.20;;;27.40;50.20;;;;;;6185718;23;20001;-70
2022/07/22 06:28:07;;;;;;;15.93;7.75;;;27.50;50.00;;;;;;6185809;23;20036;-69
2022/07/22 06:30:33;;;;;;;12.88;8.15;;;27.60;49.70;;;;;;6185013;23;20447;-69
2022/07/22 06:33:00;;;;;;;13.35;7.97;;;27.70;49.40;;;;;;6185161;23;20020;-70
2022/07/22 06:35:25;;;;;;;16.70;8.50;;;27.70;49.30;;;;;;6186108;23;19997;-70
2022/07/22 06:37:54;;;;;;;13.80;7.38;;;27.80;49.20;;;;;;6186108;23;20061;-69
2022/07/22 06:40:20;;;;;;;12.40;7.28;;;27.90;48.90;;;;;;6159605;23;20313;-69
2022/07/22 06:42:45;;;;;;;14.40;8.40;;;27.90;48.90;;;;;;6186138;23;20012;-69
2022/07/22 06:45:11;;;;;;;13.63;8.63;;;28.00;48.90;;;;;;6185870;23;19997;-70
2022/07/22 06:47:37;;;;;;;16.40;8.95;;;28.10;48.90;;;;;;6186010;23;20024;-70
2022/07/22 06:50:05;;;;;;;15.35;8.93;;;28.10;48.90;;;;;;6186828;23;20001;-70
2022/07/22 06:52:30;;;;;;;21.65;9.65;;;28.20;49.10;;;;;;6186161;23;20462;-69
2022/07/22 06:54:56;;;;;;;12.23;9.25;;;28.30;49.10;;;;;;6185342;23;19997;-69
2022/07/22 06:57:22;;;;;;;16.35;8.35;;;28.30;49.00;;;;;;6185699;23;20021;-69
2022/07/22 06:59:48;;;;;;;14.43;8.45;;;28.40;48.60;;;;;;6185447;23;20008;-69
2022/07/22 07:02:14;;;;;;;13.73;7.57;;;28.40;48.40;;;;;;6185252;23;20001;-69
2022/07/22 07:04:39;;;;;;;9.70;7.25;;;28.50;48.10;;;;;;6185293;23;20328;-68
2022/07/22 07:07:05;;;;;;;10.70;6.93;;;28.60;47.60;;;;;;6186145;23;20036;-69
2022/07/22 07:09:31;;;;;;;14.18;6.75;;;28.60;47.20;;;;;;6185232;23;20072;-69
2022/07/22 07:11:56;;;;;;;16.50;7.07;;;28.70;47.30;;;;;;6184599;23;20009;-68
2022/07/22 07:14:22;;;;;;;11.30;7.05;;;28.70;47.20;;;;;;6185693;23;20004;-69
2022/07/22 07:16:48;;;;;;;13.07;6.90;;;28.80;46.80;;;;;;6185313;23;20009;-70
2022/07/22 07:19:13;;;;;;;16.73;6.95;;;28.80;46.50;;;;;;6184782;23;20012;-72
2022/07/22 07:21:39;;;;;;;11.63;6.13;;;28.90;46.20;;;;;;6184934;23;20436;-68
2022/07/22 07:24:05;;;;;;;10.70;7.07;;;28.90;46.10;;;;;;6184694;23;20076;-70
2022/07/22 07:26:31;;;;;;;11.90;7.03;;;29.00;46.10;;;;;;6185055;23;20071;-70
2022/07/22 07:28:56;;;;;;;13.00;6.22;;;29.10;45.80;;;;;;6185113;23;20484;-71
2022/07/22 07:31:22;;;;;;;12.70;6.10;;;29.20;45.30;;;;;;6185423;23;20079;-68
2022/07/22 07:33:48;;;;;;;14.82;6.05;;;29.20;45.00;;;;;;6186231;23;20024;-70
2022/07/22 07:36:14;;;;;;;11.35;6.00;;;29.30;44.70;;;;;;6185641;23;20380;-69
2022/07/22 07:38:40;;;;;;;13.07;5.35;;;29.40;44.70;;;;;;6185617;23;20001;-71
2022/07/22 07:41:06;;;;;;;14.23;5.63;;;29.40;44.10;;;;;;6185839;23;20005;-68
2022/07/22 07:43:32;;;;;;;9.43;5.10;;;29.50;43.00;;;;;;6186616;23;20063;-70
2022/07/22 07:45:58;;;;;;;9.10;4.88;;;29.60;42.90;;;;;;6186043;23;20411;-70
2022/07/22 07:48:24;;;;;;;11.48;5.03;;;29.70;42.70;;;;;;6186333;23;20005;-70
2022/07/22 07:50:49;;;;;;;6.55;4.93;;;29.80;42.30;;;;;;6185975;23;20317;-70
2022/07/22 07:53:16;;;;;;;7.00;5.10;;;29.80;42.10;;;;;;6185929;23;20013;-68
2022/07/22 07:55:42;;;;;;;9.68;5.25;;;29.90;42.20;;;;;;6186119;23;20001;-70
2022/07/22 07:58:08;;;;;;;16.13;4.85;;;30.00;41.20;;;;;;6185762;23;20490;-71
2022/07/22 08:00:34;;;;;;;8.13;5.07;;;30.10;40.70;;;;;;6186213;23;20080;-69
2022/07/22 08:03:02;;;;;;;10.88;5.00;;;30.20;40.90;;;;;;6185888;23;20324;-69
2022/07/22 08:05:28;;;;;;;14.85;5.60;;;30.30;40.90;;;;;;6185908;23;20059;-69
2022/07/22 08:07:53;;;;;;;8.75;4.45;;;30.40;40.70;;;;;;6185896;23;20001;-69
2022/07/22 08:10:20;;;;;;;9.32;5.00;;;30.50;40.50;;;;;;6185903;23;20005;-69
2022/07/22 08:12:46;;;;;;;8.07;4.85;;;30.60;40.00;;;;;;6185726;23;20009;-69
2022/07/22 08:15:13;;;;;;;10.63;4.70;;;30.60;40.00;;;;;;6185935;23;20017;-70
2022/07/22 08:17:38;;;;;;;7.68;4.40;;;30.70;39.90;;;;;;6186230;23;20001;-69
2022/07/22 08:20:05;;;;;;;6.80;3.35;;;30.80;39.80;;;;;;6185780;23;20056;-68
2022/07/22 08:22:32;;;;;;;9.13;2.92;;;30.90;39.00;;;;;;6185738;23;20016;-69
2022/07/22 08:24:57;;;;;;;7.40;2.47;;;31.00;39.40;;;;;;6185780;23;20032;-69
2022/07/22 08:27:23;;;;;;;5.45;2.03;;;31.10;37.70;;;;;;6185699;23;20005;-69
2022/07/22 08:29:49;;;;;;;5.57;2.85;;;31.20;37.30;;;;;;6185992;23;20001;-69
2022/07/22 08:32:14;;;;;;;11.70;2.60;;;31.30;37.50;;;;;;6185670;23;20008;-69
2022/07/22 08:34:40;;;;;;;16.77;2.88;;;31.40;37.30;;;;;;6185824;23;20040;-69
2022/07/22 08:37:06;;;;;;;8.90;2.50;;;31.50;37.10;;;;;;6185929;23;19998;-69
2022/07/22 08:39:33;;;;;;;4.53;2.53;;;31.60;36.70;;;;;;6185865;23;20009;-69
2022/07/22 08:41:59;;;;;;;10.48;2.30;;;31.60;36.20;;;;;;6185765;23;20001;-69
2022/07/22 08:44:29;;;;;;;6.13;2.40;;;31.70;36.50;;;;;;6185703;23;20016;-69
2022/07/22 08:46:55;;;;;;;9.07;2.72;;;31.80;36.50;;;;;;6185712;23;20001;-69
2022/07/22 08:49:21;;;;;;;21.33;3.33;;;31.90;36.60;;;;;;6185894;23;20043;-68
2022/07/22 08:51:47;;;;;;;10.23;2.50;;;32.00;36.90;;;;;;6185657;23;20483;-69
2022/07/22 08:54:12;;;;;;;6.40;2.55;;;32.00;36.70;;;;;;6185767;23;20032;-68
2022/07/22 08:56:39;;;;;;;14.18;3.13;;;32.10;36.60;;;;;;6185510;23;20024;-69
2022/07/22 08:59:04;;;;;;;11.85;3.20;;;32.20;36.30;;;;;;6185420;23;20432;-68
2022/07/22 09:01:30;;;;;;;6.70;2.95;;;32.30;35.70;;;;;;6185450;23;20005;-69
2022/07/22 09:03:57;;;;;;;5.40;3.15;;;32.30;35.70;;;;;;6185123;23;20001;-69
2022/07/22 09:06:25;;;;;;;5.32;3.38;;;32.30;35.40;;;;;;6185355;23;20428;-69
2022/07/22 09:09:03;;;;;;;6.80;4.07;;;32.40;35.40;;;;;;6185858;23;20071;-69
2022/07/22 09:11:30;;;;;;;5.50;4.40;;;32.40;35.10;;;;;;6185410;23;20017;-69
2022/07/22 09:13:57;;;;;;;15.90;5.32;;;32.50;35.00;;;;;;6185342;23;20013;-69
2022/07/22 09:16:58;;;;;;;6.90;4.25;;;32.60;35.30;;;;;;6185443;23;19998;-69
2022/07/22 09:19:32;;;;;;;13.30;4.80;;;32.60;35.10;;;;;;6123633;23;20501;-69
2022/07/22 09:21:58;;;;;;;8.38;5.10;;;32.60;34.90;;;;;;6176222;23;20005;-69
2022/07/22 09:24:32;;;;;;;13.43;3.45;;;32.70;34.90;;;;;;6185201;23;20063;-69
2022/07/22 09:26:57;;;;;;;9.07;3.50;;;32.80;35.00;;;;;;6185769;23;20013;-69
2022/07/22 09:29:24;;;;;;;5.38;2.97;;;32.80;35.20;;;;;;6185783;23;20340;-69
2022/07/22 09:31:52;;;;;;;6.40;4.10;;;32.90;35.10;;;;;;6185104;23;20008;-69
2022/07/22 09:34:29;;;;;;;9.50;3.35;;;32.90;35.10;;;;;;6185239;23;20008;-69
2022/07/22 09:37:00;;;;;;;9.60;3.20;;;33.00;35.50;;;;;;6185490;23;20001;-69
2022/07/22 09:39:27;;;;;;;4.78;3.38;;;33.00;34.80;;;;;;6185268;23;20007;-69
2022/07/22 09:42:03;;;;;;;10.43;4.05;;;33.10;35.00;;;;;;6185664;23;20005;-69
2022/07/22 09:44:29;;;;;;;9.85;4.80;;;33.20;35.00;;;;;;6185243;23;20005;-69
2022/07/22 09:46:54;;;;;;;9.57;4.43;;;33.20;34.80;;;;;;6187209;23;20011;-69
2022/07/22 09:49:34;;;;;;;4.88;3.97;;;33.30;34.90;;;;;;6187362;23;19997;-69
2022/07/22 09:52:01;;;;;;;10.55;4.57;;;33.30;35.00;;;;;;6187870;23;20009;-69
2022/07/22 09:54:28;;;;;;;7.72;4.43;;;33.30;34.80;;;;;;6187375;23;20005;-69
2022/07/22 09:56:54;;;;;;;9.20;4.50;;;33.40;34.50;;;;;;6186905;23;20017;-69
2022/07/22 09:59:20;;;;;;;8.70;5.75;;;33.40;34.50;;;;;;6187825;23;20088;-69
2022/07/22 10:01:50;;;;;;;6.18;4.97;;;33.40;34.30;;;;;;6187190;23;20013;-69
2022/07/22 10:04:17;;;;;;;7.30;4.97;;;33.50;34.30;;;;;;6187336;23;20024;-69
2022/07/22 10:06:43;;;;;;;11.32;4.65;;;33.50;34.60;;;;;;6187411;23;20012;-69
2022/07/22 10:09:11;;;;;;;10.27;7.85;;;33.60;34.70;;;;;;6187098;23;20027;-69
2022/07/22 10:11:37;;;;;;;9.48;6.70;;;33.60;34.40;;;;;;6187687;23;20009;-69
2022/07/22 10:14:03;;;;;;;9.85;8.55;;;33.60;34.60;;;;;;6187669;23;20076;-69
2022/07/22 10:16:30;;;;;;;13.52;9.65;;;33.70;34.30;;;;;;6187622;23;20331;-69
2022/07/22 10:18:56;;;;;;;17.50;10.60;;;33.80;34.10;;;;;;6187175;23;20018;-69
2022/07/22 10:21:35;;;;;;;16.13;10.32;;;33.80;34.20;;;;;;6186489;23;20331;-69
2022/07/22 10:24:11;;;;;;;14.50;9.15;;;33.80;34.00;;;;;;6186028;23;20005;-70
2022/07/22 10:26:49;;;;;;;9.68;7.03;;;33.90;33.90;;;;;;6185235;23;19997;-69
2022/07/22 10:29:43;;;;;;;13.25;7.28;;;33.90;34.10;;;;;;6184816;23;20013;-69
2022/07/22 10:32:18;;;;;;;9.93;7.75;;;34.10;33.90;;;;;;6187004;23;20068;-69
2022/07/22 10:35:03;;;;;;;14.32;7.45;;;34.10;33.50;;;;;;6186593;23;20005;-70
2022/07/22 10:37:34;;;;;;;14.98;7.57;;;34.20;33.40;;;;;;6186665;23;20013;-69
2022/07/22 10:40:12;;;;;;;10.70;7.85;;;34.30;33.30;;;;;;6186545;23;20009;-73
2022/07/22 10:42:59;;;;;;;12.07;8.15;;;34.30;33.30;;;;;;6186515;23;20091;-67
2022/07/22 10:45:27;;;;;;;11.50;8.02;;;34.40;33.00;;;;;;6186377;23;20016;-74
2022/07/22 10:47:54;;;;;;;15.65;8.25;;;34.40;32.70;;;;;;6186953;23;20017;-71
2022/07/22 10:50:35;;;;;;;13.18;7.85;;;34.40;32.00;;;;;;6186462;23;20009;-71
2022/07/22 10:53:01;;;;;;;;;;;34.40;32.20;;;;;;6186943;23;20375;-73
2022/07/22 10:55:27;;;;;;;14.05;7.75;;;34.50;32.30;;;;;;6186075;23;20488;-72
2022/07/22 10:57:52;;;;;;;9.40;7.47;;;34.50;32.30;;;;;;6186006;23;20020;-73
2022/07/22 11:00:18;;;;;;;11.85;7.72;;;34.60;31.90;;;;;;6186546;23;20001;-72
2022/07/22 11:02:44;;;;;;;12.20;7.82;;;34.60;32.10;;;;;;6160679;23;20005;-73
2022/07/22 11:05:10;;;;;;;16.13;7.72;;;34.70;31.90;;;;;;6186574;23;20318;-72
2022/07/22 11:07:46;;;;;;;9.40;7.60;;;34.70;32.10;;;;;;6186564;23;20005;-72
2022/07/22 11:10:18;;;;;;;13.50;7.53;;;34.80;31.70;;;;;;6185121;23;20021;-72
2022/07/22 11:12:46;;;;;;;12.93;7.30;;;34.90;31.30;;;;;;6183598;23;20015;-74
2022/07/22 11:15:12;;;;;;;13.98;7.38;;;35.00;31.30;;;;;;6182229;23;20009;-72
2022/07/22 11:17:39;;;;;;;10.35;7.45;;;35.00;31.00;;;;;;6182231;23;20352;-72
2022/07/22 11:20:06;;;;;;;14.70;6.90;;;35.00;31.40;;;;;;6184626;23;20441;-71
2022/07/22 11:22:33;;;;;;;10.93;7.13;;;35.00;31.50;;;;;;6184912;23;20013;-71
2022/07/22 11:25:03;;;;;;;11.90;7.43;;;35.10;31.50;;;;;;6183709;23;20009;-72
2022/07/22 11:27:28;;;;;;;13.85;8.30;;;35.20;31.20;;;;;;6184233;23;20013;-72
2022/07/22 11:29:56;;;;;;;13.82;8.60;;;35.20;31.30;;;;;;6184699;23;20331;-73
2022/07/22 11:32:23;;;;;;;10.98;8.27;;;35.20;31.00;;;;;;6180554;23;20016;-73
2022/07/22 11:34:49;;;;;;;12.02;7.30;;;35.30;31.40;;;;;;6182410;23;20012;-74
2022/07/22 11:37:19;;;;;;;12.38;7.50;;;35.30;31.40;;;;;;6183744;23;20105;-75
2022/07/22 11:39:46;;;;;;;14.55;9.85;;;35.30;31.20;;;;;;6185965;23;20306;-71
2022/07/22 11:42:11;;;;;;;13.63;9.05;;;35.30;30.60;;;;;;6185860;23;20043;-71
2022/07/22 11:44:38;;;;;;;18.95;10.90;;;35.30;30.60;;;;;;6185858;23;20001;-71
2022/07/22 11:47:05;;;;;;;20.98;11.50;;;35.30;30.80;;;;;;6185312;23;20001;-73
2022/07/22 11:49:34;;;;;;;13.55;9.43;;;35.30;31.10;;;;;;6185158;23;20001;-72
2022/07/22 11:52:00;;;;;;;11.90;8.65;;;35.30;31.30;;;;;;6185504;23;20309;-72
2022/07/22 11:54:27;;;;;;;9.60;7.93;;;35.40;30.70;;;;;;6185190;23;20032;-71
2022/07/22 11:56:53;;;;;;;14.40;8.82;;;35.40;31.30;;;;;;6185747;23;20013;-72
2022/07/22 11:59:19;;;;;;;11.65;8.85;;;35.50;31.10;;;;;;6185741;23;20013;-73
2022/07/22 12:01:47;;;;;;;10.55;7.43;;;35.50;30.90;;;;;;6185296;23;19997;-71
2022/07/22 12:04:18;;;;;;;10.93;6.63;;;35.60;31.10;;;;;;6186018;23;20035;-71
2022/07/22 12:06:44;;;;;;;;;;;35.70;31.00;;;;;;6186359;23;20001;-69
2022/07/22 12:09:11;;;;;;;9.60;7.25;;;35.70;31.10;;;;;;6184928;23;19912;-69
2022/07/22 12:11:45;;;;;;;11.02;6.60;;;35.70;31.10;;;;;;6185889;23;20016;-68
2022/07/22 12:14:20;;;;;;;13.05;6.38;;;35.80;31.00;;;;;;6185251;23;20013;-69
2022/07/22 12:17:01;;;;;;;9.18;6.13;;;35.90;31.20;;;;;;6185274;23;20001;-72
2022/07/22 12:19:31;;;;;;;11.75;6.43;;;35.90;30.50;;;;;;6185372;23;20008;-73
2022/07/22 12:22:00;;;;;;;11.07;9.10;;;36.00;31.40;;;;;;6185999;23;20013;-73
2022/07/22 12:24:33;;;;;;;11.07;6.93;;;36.00;30.50;;;;;;6185063;23;20503;-73
2022/07/22 12:27:02;;;;;;;8.35;7.10;;;36.00;30.70;;;;;;6185598;23;20001;-74
2022/07/22 12:29:40;;;;;;;8.57;6.70;;;36.00;30.80;;;;;;6185415;23;20059;-73
2022/07/22 12:32:09;;;;;;;9.70;7.00;;;36.10;30.70;;;;;;6185002;23;20063;-73